Time;durP1;ratioP1;P1;durP2;ratioP2;P2;SDS_P1;SDS_P2;PMS_P1;PMS_P2;Temp;Humidity;BMP_temperature;BMP_pressure;BME280_temperature;BME280_humidity;BME280_pressure;Samples;Min_cycle;Max_cycle;Signal;HPM_P1;HPM_P2
2022/05/16 00:01:55;;;;;;;7.97;3.93;;;;;;;;;;5052569;28;20564;-73
2022/05/16 00:04:22;;;;;;;6.00;3.50;;;;;;;;;;5052720;28;20533;-73
2022/05/16 00:06:50;;;;;;;9.60;4.20;;;;;;;;;;5052846;28;20452;-74
2022/05/16 00:09:17;;;;;;;11.53;4.80;;;;;;;;;;5052686;28;20449;-73
2022/05/16 00:11:44;;;;;;;8.00;4.30;;;;;;;;;;5053097;28;20556;-73
2022/05/16 00:14:11;;;;;;;12.03;4.53;;;;;;;;;;5053017;28;20483;-73
2022/05/16 00:16:38;;;;;;;6.27;3.90;;;;;;;;;;5052490;28;20453;-73
2022/05/16 00:19:07;;;;;;;12.00;5.70;;;;;;;;;;5053766;28;20468;-73
2022/05/16 00:21:34;;;;;;;10.07;4.53;;;;;;;;;;5056685;28;20444;-73
2022/05/16 00:24:02;;;;;;;10.60;4.70;;;;;;;;;;5056674;28;20438;-73
2022/05/16 00:26:29;;;;;;;9.53;4.63;;;;;;;;;;5056319;28;20448;-73
2022/05/16 00:28:56;;;;;;;14.00;4.40;;;;;;;;;;5056313;28;20446;-74
2022/05/16 00:31:23;;;;;;;9.60;4.60;;;;;;;;;;5056306;28;20955;-73
2022/05/16 00:33:50;;;;;;;12.60;4.57;;;;;;;;;;5055856;28;20477;-73
2022/05/16 00:36:19;;;;;;;8.17;4.50;;;;;;;;;;5056031;28;20473;-73
2022/05/16 00:38:46;;;;;;;8.50;5.00;;;;;;;;;;5055793;28;20528;-73
2022/05/16 00:41:13;;;;;;;15.23;5.37;;;;;;;;;;5056071;28;20876;-73
2022/05/16 00:43:45;;;;;;;11.93;5.37;;;;;;;;;;5056209;28;20456;-73
2022/05/16 00:46:12;;;;;;;12.17;4.50;;;;;;;;;;5055615;28;20943;-73
2022/05/16 00:48:40;;;;;;;6.63;4.27;;;;;;;;;;5055953;28;20450;-73
2022/05/16 00:51:07;;;;;;;8.97;4.87;;;;;;;;;;5055796;28;20435;-73
2022/05/16 00:53:36;;;;;;;9.13;5.30;;;;;;;;;;5055857;28;20481;-73
2022/05/16 00:56:03;;;;;;;7.90;4.23;;;;;;;;;;5055737;28;20533;-73
2022/05/16 00:58:30;;;;;;;12.07;4.53;;;;;;;;;;5055472;28;20439;-73
2022/05/16 01:00:58;;;;;;;10.23;4.40;;;;;;;;;;5055573;28;20460;-73
2022/05/16 01:06:10;;;;;;;8.90;5.00;;;;;;;;;;5055657;28;20393;-73
2022/05/16 01:08:43;;;;;;;6.97;4.30;;;;;;;;;;5055268;28;20958;-73
2022/05/16 01:11:11;;;;;;;9.17;4.47;;;;;;;;;;5055567;28;20857;-73
2022/05/16 01:13:39;;;;;;;9.77;4.83;;;;;;;;;;5055424;28;20568;-73
2022/05/16 01:16:07;;;;;;;9.83;4.70;;;;;;;;;;5055075;28;20961;-73
2022/05/16 01:18:34;;;;;;;9.57;4.70;;;;;;;;;;5055665;28;20450;-73
2022/05/16 01:21:08;;;;;;;6.97;4.60;;;;;;;;;;5055263;28;20444;-73
2022/05/16 01:23:38;;;;;;;7.90;4.77;;;;;;;;;;5055350;28;20450;-74
2022/05/16 01:26:07;;;;;;;11.87;4.70;;;;;;;;;;5055162;28;20452;-73
2022/05/16 01:28:35;;;;;;;11.83;4.90;;;;;;;;;;5055143;28;20930;-73
2022/05/16 01:31:02;;;;;;;13.37;5.37;;;;;;;;;;5054597;28;20478;-73
2022/05/16 01:33:29;;;;;;;6.43;4.53;;;;;;;;;;5055410;28;20569;-73
2022/05/16 01:35:56;;;;;;;15.40;5.60;;;;;;;;;;5054688;28;20927;-73
2022/05/16 01:38:26;;;;;;;12.90;5.33;;;;;;;;;;5055054;28;20468;-73
2022/05/16 01:40:55;;;;;;;8.37;4.73;;;;;;;;;;5054995;28;20500;-73
2022/05/16 01:43:24;;;;;;;13.27;5.23;;;;;;;;;;5055532;28;20450;-73
2022/05/16 01:45:51;;;;;;;9.73;4.37;;;;;;;;;;5055032;28;20442;-73
2022/05/16 01:48:19;;;;;;;8.33;4.63;;;;;;;;;;5054624;28;20532;-73
2022/05/16 01:50:47;;;;;;;12.57;4.90;;;;;;;;;;5054442;28;20451;-73
2022/05/16 01:53:15;;;;;;;14.50;4.93;;;;;;;;;;5054723;28;20489;-73
2022/05/16 01:55:42;;;;;;;11.13;5.70;;;;;;;;;;5054310;28;20805;-73
2022/05/16 01:58:11;;;;;;;9.00;4.47;;;;;;;;;;5054349;28;20534;-73
2022/05/16 02:00:38;;;;;;;6.70;4.67;;;;;;;;;;5054353;28;20921;-73
2022/05/16 02:03:06;;;;;;;9.40;4.43;;;;;;;;;;5055048;28;20439;-73
2022/05/16 02:05:33;;;;;;;10.27;4.83;;;;;;;;;;5054701;28;20447;-73
2022/05/16 02:08:01;;;;;;;12.37;4.60;;;;;;;;;;5054458;28;20450;-73
2022/05/16 02:10:28;;;;;;;7.40;4.73;;;;;;;;;;5054337;28;20799;-72
2022/05/16 02:12:57;;;;;;;6.87;4.80;;;;;;;;;;5054019;28;20942;-73
2022/05/16 02:15:27;;;;;;;11.43;4.90;;;;;;;;;;5054773;28;20445;-74
2022/05/16 02:17:54;;;;;;;12.77;5.30;;;;;;;;;;5054502;28;20446;-73
2022/05/16 02:20:21;;;;;;;8.20;4.10;;;;;;;;;;5054723;28;20439;-73
2022/05/16 02:25:34;;;;;;;7.10;5.00;;;;;;;;;;5054047;28;20457;-74
2022/05/16 02:28:01;;;;;;;9.60;4.60;;;;;;;;;;5054062;28;20442;-73
2022/05/16 02:30:30;;;;;;;10.77;4.57;;;;;;;;;;5054254;28;20551;-74
2022/05/16 02:32:57;;;;;;;12.73;4.80;;;;;;;;;;5053928;28;20441;-73
2022/05/16 02:35:24;;;;;;;10.83;5.33;;;;;;;;;;5053992;28;20442;-73
2022/05/16 02:37:51;;;;;;;10.80;4.67;;;;;;;;;;5053928;28;20548;-73
2022/05/16 02:40:19;;;;;;;9.43;4.50;;;;;;;;;;5053954;28;20442;-73
2022/05/16 02:42:46;;;;;;;10.80;6.00;;;;;;;;;;5053102;28;20446;-74
2022/05/16 02:45:13;;;;;;;9.73;5.13;;;;;;;;;;5053613;28;20449;-73
2022/05/16 02:47:41;;;;;;;10.90;5.70;;;;;;;;;;5053574;28;20439;-74
2022/05/16 02:50:09;;;;;;;9.83;5.37;;;;;;;;;;5053602;28;20939;-74
2022/05/16 02:52:36;;;;;;;14.30;5.70;;;;;;;;;;5053317;28;20453;-74
2022/05/16 02:55:04;;;;;;;8.43;4.80;;;;;;;;;;5053985;28;20482;-73
2022/05/16 02:57:32;;;;;;;7.33;4.00;;;;;;;;;;5053575;28;20521;-73
2022/05/16 02:59:59;;;;;;;8.63;4.60;;;;;;;;;;5053837;28;20452;-73
2022/05/16 03:02:27;;;;;;;7.17;4.20;;;;;;;;;;5053707;28;20972;-73
2022/05/16 03:04:55;;;;;;;11.13;5.77;;;;;;;;;;5053688;28;20446;-73
2022/05/16 03:07:22;;;;;;;8.43;5.80;;;;;;;;;;5053595;28;20439;-73
2022/05/16 03:09:50;;;;;;;12.60;5.90;;;;;;;;;;5053835;28;20452;-73
2022/05/16 03:12:17;;;;;;;9.37;5.07;;;;;;;;;;5053050;28;20448;-73
2022/05/16 03:14:44;;;;;;;10.63;4.90;;;;;;;;;;5053777;28;20479;-73
2022/05/16 03:17:11;;;;;;;12.87;4.37;;;;;;;;;;5053337;28;20478;-73
2022/05/16 03:19:38;;;;;;;10.93;5.10;;;;;;;;;;5053109;28;20453;-73
2022/05/16 03:22:07;;;;;;;6.70;4.70;;;;;;;;;;5052952;28;20442;-73
2022/05/16 03:24:35;;;;;;;8.83;4.50;;;;;;;;;;5053052;28;20529;-73
2022/05/16 03:27:03;;;;;;;13.03;4.87;;;;;;;;;;5053662;28;20495;-73
2022/05/16 03:29:30;;;;;;;8.40;4.60;;;;;;;;;;5052928;28;20447;-73
2022/05/16 03:31:57;;;;;;;13.70;6.10;;;;;;;;;;5053417;28;20523;-73
2022/05/16 03:34:26;;;;;;;11.30;5.63;;;;;;;;;;5052864;28;20580;-73
2022/05/16 03:36:53;;;;;;;6.47;4.17;;;;;;;;;;5053937;28;20512;-72
2022/05/16 03:42:06;;;;;;;10.03;4.70;;;;;;;;;;5053099;28;20480;-72
2022/05/16 03:44:33;;;;;;;6.43;4.67;;;;;;;;;;5053153;28;20463;-74
2022/05/16 03:47:01;;;;;;;9.53;4.70;;;;;;;;;;5053761;28;20489;-73
2022/05/16 03:49:30;;;;;;;11.50;5.60;;;;;;;;;;5053094;28;20437;-72
2022/05/16 03:51:59;;;;;;;12.07;4.93;;;;;;;;;;5052715;28;20442;-72
2022/05/16 03:54:28;;;;;;;10.80;4.50;;;;;;;;;;5054469;28;20474;-72
2022/05/16 03:56:55;;;;;;;8.13;4.17;;;;;;;;;;5056311;28;20448;-72
2022/05/16 03:59:22;;;;;;;9.50;4.70;;;;;;;;;;5056344;28;20449;-72
2022/05/16 04:01:51;;;;;;;10.80;5.00;;;;;;;;;;5056272;28;20469;-73
2022/05/16 04:04:19;;;;;;;12.03;4.70;;;;;;;;;;5056117;28;20962;-73
2022/05/16 04:06:46;;;;;;;10.90;5.57;;;;;;;;;;5056432;28;20450;-72
2022/05/16 04:09:13;;;;;;;11.30;4.73;;;;;;;;;;5056603;28;20448;-72
2022/05/16 04:11:42;;;;;;;9.33;6.00;;;;;;;;;;5056439;28;20969;-72
2022/05/16 04:14:09;;;;;;;11.27;4.30;;;;;;;;;;5056396;28;20488;-72
2022/05/16 04:16:37;;;;;;;11.83;4.90;;;;;;;;;;5056788;28;20519;-72
2022/05/16 04:19:04;;;;;;;13.83;5.07;;;;;;;;;;5056752;28;20473;-72
2022/05/16 04:21:32;;;;;;;9.87;4.80;;;;;;;;;;5056786;28;20495;-73
2022/05/16 04:23:59;;;;;;;9.53;5.03;;;;;;;;;;5056466;28;20446;-72
2022/05/16 04:26:26;;;;;;;10.27;4.50;;;;;;;;;;5056362;28;20449;-72
2022/05/16 04:28:55;;;;;;;12.90;5.30;;;;;;;;;;5056337;28;20437;-72
2022/05/16 04:31:22;;;;;;;7.87;4.80;;;;;;;;;;5056728;28;20471;-72
2022/05/16 04:33:49;;;;;;;11.17;5.00;;;;;;;;;;5055892;28;20549;-72
2022/05/16 04:36:16;;;;;;;12.23;5.57;;;;;;;;;;5055992;28;20444;-72
2022/05/16 04:38:44;;;;;;;10.73;5.47;;;;;;;;;;5056074;28;21003;-73
2022/05/16 04:43:57;;;;;;;12.80;5.23;;;;;;;;;;5056036;28;20447;-73
2022/05/16 04:46:24;;;;;;;14.00;4.67;;;;;;;;;;5056202;28;20434;-72
2022/05/16 04:48:51;;;;;;;8.80;4.13;;;;;;;;;;5055908;28;20443;-73
2022/05/16 04:51:19;;;;;;;14.73;5.17;;;;;;;;;;5056000;28;20468;-72
2022/05/16 04:53:46;;;;;;;12.13;4.50;;;;;;;;;;5055450;28;20861;-73
2022/05/16 04:56:13;;;;;;;6.37;4.20;;;;;;;;;;5056495;28;20809;-72
2022/05/16 04:58:40;;;;;;;7.17;4.47;;;;;;;;;;5055719;28;20496;-72
2022/05/16 05:01:09;;;;;;;10.93;4.67;;;;;;;;;;5055133;28;20478;-72
2022/05/16 05:03:36;;;;;;;6.47;4.33;;;;;;;;;;5055378;28;20483;-72
2022/05/16 05:06:03;;;;;;;12.83;5.47;;;;;;;;;;5054825;28;20450;-73
2022/05/16 05:08:30;;;;;;;10.33;4.20;;;;;;;;;;5055507;28;20453;-74
2022/05/16 05:16:29;;;;;;;10.43;4.73;;;;;;;;;;5055902;28;20422;-67
2022/05/16 05:18:57;;;;;;;18.43;13.83;;;;;;;;;;5055356;28;20450;-67
2022/05/16 05:21:24;;;;;;;32.07;17.10;;;;;;;;;;5055374;28;20449;-67
2022/05/16 05:23:52;;;;;;;8.83;4.73;;;;;;;;;;5055706;28;20433;-67
2022/05/16 05:26:20;;;;;;;9.80;4.77;;;;;;;;;;5055388;28;20506;-67
2022/05/16 05:28:47;;;;;;;6.03;4.00;;;;;;;;;;5055278;28;20451;-67
2022/05/16 05:31:15;;;;;;;8.20;4.47;;;;;;;;;;5054955;28;20449;-68
2022/05/16 05:33:44;;;;;;;12.93;6.07;;;;;;;;;;5054798;28;20454;-67
2022/05/16 05:36:12;;;;;;;11.67;4.50;;;;;;;;;;5055511;28;20499;-66
2022/05/16 05:38:40;;;;;;;12.70;4.50;;;;;;;;;;5055010;28;20439;-66
2022/05/16 05:41:07;;;;;;;8.77;4.97;;;;;;;;;;5055471;28;20528;-67
2022/05/16 05:43:35;;;;;;;12.93;4.90;;;;;;;;;;5054571;28;20540;-67
2022/05/16 05:46:03;;;;;;;9.40;5.70;;;;;;;;;;5054661;28;20489;-67
2022/05/16 05:48:31;;;;;;;8.97;5.30;;;;;;;;;;5054729;28;20438;-67
2022/05/16 05:50:59;;;;;;;7.73;5.30;;;;;;;;;;5054859;28;20525;-66
2022/05/16 05:53:26;;;;;;;10.80;5.73;;;;;;;;;;5054719;28;20538;-67
2022/05/16 05:55:54;;;;;;;9.77;4.23;;;;;;;;;;5054390;28;20478;-67
2022/05/16 05:58:21;;;;;;;10.00;4.73;;;;;;;;;;5055127;28;20444;-67
2022/05/16 06:00:48;;;;;;;9.90;4.53;;;;;;;;;;5054614;28;20449;-67
2022/05/16 06:03:16;;;;;;;10.70;4.53;;;;;;;;;;5055042;28;20462;-66
2022/05/16 06:05:44;;;;;;;9.40;5.23;;;;;;;;;;5054511;28;20525;-67
2022/05/16 06:08:13;;;;;;;8.80;4.30;;;;;;;;;;5054192;28;20445;-66
2022/05/16 06:10:40;;;;;;;11.50;4.30;;;;;;;;;;5054062;28;20951;-67
2022/05/16 06:13:07;;;;;;;9.60;4.07;;;;;;;;;;5054379;28;20777;-66
2022/05/16 06:15:34;;;;;;;11.70;4.77;;;;;;;;;;5054313;28;20485;-67
2022/05/16 06:18:02;;;;;;;11.90;5.93;;;;;;;;;;5054483;28;20452;-66
2022/05/16 06:20:29;;;;;;;15.10;7.97;;;;;;;;;;5054368;28;20442;-66
2022/05/16 06:22:57;;;;;;;7.40;4.43;;;;;;;;;;5053916;28;20531;-66
2022/05/16 06:25:34;;;;;;;10.80;4.83;;;;;;;;;;5054297;28;20448;-67
2022/05/16 06:28:02;;;;;;;9.20;4.00;;;;;;;;;;5053842;28;20434;-66
2022/05/16 06:30:30;;;;;;;15.03;4.20;;;;;;;;;;5053991;28;20911;-67
2022/05/16 06:32:57;;;;;;;13.80;5.20;;;;;;;;;;5054640;28;20545;-66
2022/05/16 06:35:24;;;;;;;8.43;4.70;;;;;;;;;;5053578;28;20480;-66
2022/05/16 06:37:52;;;;;;;10.70;4.40;;;;;;;;;;5053698;28;20442;-66
2022/05/16 06:40:20;;;;;;;15.87;4.07;;;;;;;;;;5053916;28;20766;-66
2022/05/16 06:42:49;;;;;;;11.37;4.47;;;;;;;;;;5053623;28;20447;-66
2022/05/16 06:45:16;;;;;;;10.90;5.53;;;;;;;;;;5054036;28;20548;-66
2022/05/16 06:47:44;;;;;;;9.20;4.10;;;;;;;;;;5053879;28;20452;-66
2022/05/16 06:50:11;;;;;;;8.40;4.67;;;;;;;;;;5053721;28;20532;-67
2022/05/16 06:52:38;;;;;;;12.93;5.23;;;;;;;;;;5053473;28;20452;-66
2022/05/16 06:55:06;;;;;;;13.60;5.27;;;;;;;;;;5053236;28;20485;-66
2022/05/16 06:57:34;;;;;;;9.13;5.03;;;;;;;;;;5053716;28;20797;-67
2022/05/16 07:00:03;;;;;;;13.90;4.73;;;;;;;;;;5053289;28;20442;-67
2022/05/16 07:02:30;;;;;;;16.17;9.80;;;;;;;;;;5053968;28;20562;-67
2022/05/16 07:04:58;;;;;;;12.00;4.67;;;;;;;;;;5053470;28;20455;-67
2022/05/16 07:07:25;;;;;;;9.13;4.90;;;;;;;;;;5053918;28;20932;-67
2022/05/16 07:09:53;;;;;;;12.67;4.93;;;;;;;;;;5053626;28;20542;-67
2022/05/16 07:12:20;;;;;;;13.47;5.20;;;;;;;;;;5053952;28;20443;-67
2022/05/16 07:14:48;;;;;;;9.67;4.77;;;;;;;;;;5053355;28;21003;-67
2022/05/16 07:17:17;;;;;;;7.77;4.60;;;;;;;;;;5053536;28;20440;-67
2022/05/16 07:19:46;;;;;;;8.90;4.30;;;;;;;;;;5053407;28;20442;-67
2022/05/16 07:22:15;;;;;;;12.07;3.93;;;;;;;;;;5053535;28;20546;-67
2022/05/16 07:24:43;;;;;;;10.90;4.73;;;;;;;;;;5053342;28;20442;-67
2022/05/16 07:29:55;;;;;;;14.80;4.60;;;;;;;;;;5055612;28;20473;-67
2022/05/16 07:32:23;;;;;;;11.03;5.97;;;;;;;;;;5057198;28;20516;-68
2022/05/16 07:34:51;;;;;;;8.53;4.70;;;;;;;;;;5057332;28;20992;-67
2022/05/16 07:37:18;;;;;;;8.90;4.47;;;;;;;;;;5057570;28;20902;-67
2022/05/16 07:39:45;;;;;;;4.40;3.67;;;;;;;;;;5057442;28;20449;-67
2022/05/16 07:42:12;;;;;;;11.60;4.87;;;;;;;;;;5057267;28;20454;-67
2022/05/16 07:44:41;;;;;;;8.10;4.83;;;;;;;;;;5057321;28;20494;-68
2022/05/16 07:47:08;;;;;;;10.67;4.43;;;;;;;;;;5056773;28;20446;-68
2022/05/16 07:49:37;;;;;;;15.20;5.80;;;;;;;;;;5056848;28;20476;-67
2022/05/16 07:52:04;;;;;;;8.97;4.63;;;;;;;;;;5057060;28;20438;-68
2022/05/16 07:54:32;;;;;;;11.27;5.67;;;;;;;;;;5056813;28;20533;-68
2022/05/16 07:56:59;;;;;;;11.00;3.70;;;;;;;;;;5056594;28;21006;-68
2022/05/16 07:59:26;;;;;;;6.03;3.90;;;;;;;;;;5056762;28;20479;-68
2022/05/16 08:01:53;;;;;;;9.60;5.00;;;;;;;;;;5057118;28;20476;-68
2022/05/16 08:04:21;;;;;;;11.13;4.50;;;;;;;;;;5057207;28;20803;-68
2022/05/16 08:06:50;;;;;;;13.80;5.73;;;;;;;;;;5056737;28;20448;-67
2022/05/16 08:12:03;;;;;;;9.40;5.00;;;;;;;;;;5056836;28;20398;-68
2022/05/16 08:14:30;;;;;;;12.93;4.03;;;;;;;;;;5056708;28;20437;-68
2022/05/16 08:16:59;;;;;;;9.00;4.70;;;;;;;;;;5056800;28;20480;-68
2022/05/16 08:19:29;;;;;;;8.10;4.53;;;;;;;;;;5056692;28;20459;-67
2022/05/16 08:21:57;;;;;;;8.37;4.83;;;;;;;;;;5056774;28;20532;-68
2022/05/16 08:24:25;;;;;;;11.80;4.90;;;;;;;;;;5056485;28;20437;-68
2022/05/16 08:26:52;;;;;;;9.43;5.00;;;;;;;;;;5056669;28;20445;-68
2022/05/16 08:29:19;;;;;;;9.43;4.60;;;;;;;;;;5056456;28;20448;-68
2022/05/16 08:31:46;;;;;;;9.67;5.20;;;;;;;;;;5056587;28;20450;-68
2022/05/16 08:34:13;;;;;;;8.47;5.00;;;;;;;;;;5056367;28;20487;-68
2022/05/16 08:42:14;;;;;;;8.17;5.00;;;;;;;;;;5055065;28;20457;-68
2022/05/16 08:44:47;;;;;;;9.87;4.13;;;;;;;;;;5055859;28;20447;-67
2022/05/16 08:47:22;;;;;;;9.47;3.70;;;;;;;;;;5055883;28;20943;-68
2022/05/16 08:49:52;;;;;;;7.80;4.87;;;;;;;;;;5055708;28;20491;-68
2022/05/16 08:52:25;;;;;;;6.63;3.83;;;;;;;;;;5056029;28;20819;-68
2022/05/16 08:54:58;;;;;;;9.43;4.10;;;;;;;;;;5056548;28;20517;-67
2022/05/16 08:57:29;;;;;;;9.23;4.70;;;;;;;;;;5055542;28;20453;-68
2022/05/16 08:59:58;;;;;;;8.97;4.00;;;;;;;;;;5055679;28;20449;-68
2022/05/16 09:02:26;;;;;;;9.47;6.00;;;;;;;;;;5055380;28;20800;-68
2022/05/16 09:04:57;;;;;;;9.87;4.20;;;;;;;;;;5056098;28;20928;-68
2022/05/16 09:07:28;;;;;;;9.60;4.20;;;;;;;;;;5055772;28;20871;-68
2022/05/16 09:09:59;;;;;;;5.73;3.53;;;;;;;;;;5055842;28;20440;-68
2022/05/16 09:12:28;;;;;;;6.97;4.03;;;;;;;;;;5055513;28;20434;-68
2022/05/16 09:15:05;;;;;;;14.40;4.40;;;;;;;;;;5055594;28;20914;-68
2022/05/16 09:17:34;;;;;;;5.20;3.87;;;;;;;;;;5055810;28;20438;-68
2022/05/16 09:20:10;;;;;;;12.03;4.80;;;;;;;;;;5055228;28;20446;-67
2022/05/16 09:22:40;;;;;;;6.47;4.43;;;;;;;;;;5055143;28;20435;-68
2022/05/16 09:25:12;;;;;;;9.77;4.17;;;;;;;;;;5056223;28;20427;-68
2022/05/16 09:30:33;;;;;;;13.03;4.80;;;;;;;;;;5030702;28;20431;-68
2022/05/16 09:33:02;;;;;;;8.53;3.90;;;;;;;;;;5054889;28;20484;-68
2022/05/16 09:35:33;;;;;;;7.70;5.10;;;;;;;;;;5055157;28;20793;-68
2022/05/16 09:38:01;;;;;;;11.73;4.03;;;;;;;;;;5055343;28;20934;-68
2022/05/16 09:40:34;;;;;;;5.30;3.70;;;;;;;;;;5054838;28;20462;-67
2022/05/16 09:43:06;;;;;;;8.73;4.13;;;;;;;;;;5055289;28;20433;-68
2022/05/16 09:45:33;;;;;;;9.43;4.60;;;;;;;;;;5054978;28;20976;-67
2022/05/16 09:48:01;;;;;;;8.63;4.73;;;;;;;;;;5054666;28;20552;-67
2022/05/16 09:50:29;;;;;;;11.03;5.47;;;;;;;;;;5054766;28;20458;-68
2022/05/16 09:53:11;;;;;;;10.47;5.03;;;;;;;;;;5054070;28;20456;-67
2022/05/16 09:55:46;;;;;;;8.30;4.50;;;;;;;;;;5054778;28;20522;-69
2022/05/16 09:58:15;;;;;;;8.20;4.13;;;;;;;;;;5054966;28;20425;-68
2022/05/16 10:00:45;;;;;;;6.60;4.30;;;;;;;;;;5055219;28;20444;-68
2022/05/16 10:03:22;;;;;;;8.03;4.50;;;;;;;;;;5054684;28;20423;-68
2022/05/16 10:05:51;;;;;;;6.83;4.33;;;;;;;;;;5054575;28;20438;-68
2022/05/16 10:08:25;;;;;;;6.87;4.20;;;;;;;;;;5054619;28;20448;-68
2022/05/16 10:10:54;;;;;;;6.57;4.37;;;;;;;;;;5054823;28;20845;-68
2022/05/16 10:13:21;;;;;;;7.47;4.03;;;;;;;;;;5054380;28;20440;-68
2022/05/16 10:15:51;;;;;;;7.07;4.30;;;;;;;;;;5054817;28;20861;-68
2022/05/16 10:18:20;;;;;;;5.67;3.77;;;;;;;;;;5054248;28;20454;-68
2022/05/16 10:20:49;;;;;;;5.63;4.33;;;;;;;;;;5054867;28;20488;-68
2022/05/16 10:23:21;;;;;;;7.27;4.57;;;;;;;;;;5053920;28;20441;-68
2022/05/16 10:25:50;;;;;;;6.83;3.87;;;;;;;;;;5054406;28;20433;-68
2022/05/16 10:28:21;;;;;;;9.43;4.70;;;;;;;;;;5054190;28;20859;-68
2022/05/16 10:33:38;;;;;;;7.33;5.10;;;;;;;;;;5053987;28;20502;-67
2022/05/16 10:36:07;;;;;;;8.33;4.83;;;;;;;;;;5054438;28;20477;-68
2022/05/16 10:38:35;;;;;;;9.00;4.77;;;;;;;;;;5054079;28;20438;-68
2022/05/16 10:41:04;;;;;;;12.17;5.83;;;;;;;;;;5053679;28;20445;-68
2022/05/16 10:43:38;;;;;;;8.80;4.93;;;;;;;;;;5053856;28;20438;-67
2022/05/16 10:46:07;;;;;;;7.80;4.00;;;;;;;;;;5054129;28;20423;-67
2022/05/16 10:48:41;;;;;;;11.37;5.17;;;;;;;;;;5053478;28;20436;-68
2022/05/16 10:51:12;;;;;;;4.10;3.70;;;;;;;;;;5054347;28;20526;-68
2022/05/16 10:53:42;;;;;;;6.73;4.73;;;;;;;;;;5053493;28;20994;-68
2022/05/16 10:56:13;;;;;;;6.73;3.93;;;;;;;;;;5054315;28;20464;-67
2022/05/16 10:58:50;;;;;;;9.07;5.00;;;;;;;;;;5053398;28;20930;-67
2022/05/16 11:01:20;;;;;;;9.97;4.10;;;;;;;;;;5053614;28;20469;-67
2022/05/16 11:04:21;;;;;;;6.03;4.17;;;;;;;;;;5052556;28;20906;-68
2022/05/16 11:07:00;;;;;;;9.17;4.70;;;;;;;;;;4972628;28;20890;-67
2022/05/16 11:09:32;;;;;;;9.73;4.50;;;;;;;;;;4972855;28;20434;-67
2022/05/16 11:12:01;;;;;;;7.90;4.73;;;;;;;;;;5018339;28;20448;-67
2022/05/16 11:14:33;;;;;;;9.60;4.83;;;;;;;;;;5053120;28;20474;-67
2022/05/16 11:17:05;;;;;;;8.57;4.50;;;;;;;;;;5053531;28;20806;-67
2022/05/16 11:19:38;;;;;;;12.57;4.80;;;;;;;;;;5053469;28;20473;-67
2022/05/16 11:22:08;;;;;;;8.47;4.17;;;;;;;;;;5053776;28;20448;-67
2022/05/16 11:24:42;;;;;;;5.43;4.23;;;;;;;;;;5053106;28;20436;-67
2022/05/16 11:27:13;;;;;;;7.37;4.43;;;;;;;;;;5053119;28;20434;-67
2022/05/16 11:29:47;;;;;;;8.73;4.27;;;;;;;;;;5053401;28;20433;-67
2022/05/16 11:32:22;;;;;;;6.93;4.47;;;;;;;;;;5053156;28;20439;-68
2022/05/16 11:34:54;;;;;;;8.10;4.90;;;;;;;;;;5053420;28;20428;-65
2022/05/16 11:37:31;;;;;;;9.33;3.97;;;;;;;;;;5053718;28;20477;-73
2022/05/16 11:40:00;;;;;;;6.80;3.87;;;;;;;;;;5053293;28;20423;-73
2022/05/16 11:42:33;;;;;;;9.07;4.13;;;;;;;;;;5053269;28;20444;-73
2022/05/16 11:45:08;;;;;;;9.20;4.83;;;;;;;;;;5052899;28;20429;-72
2022/05/16 11:47:38;;;;;;;7.93;5.47;;;;;;;;;;5053029;28;20433;-73
2022/05/16 11:50:09;;;;;;;7.73;5.17;;;;;;;;;;5052693;28;20877;-73
2022/05/16 11:52:41;;;;;;;7.00;5.00;;;;;;;;;;5052885;28;20438;-72
2022/05/16 12:00:31;;;;;;;10.63;5.10;;;;;;;;;;5052742;28;20432;-72
2022/05/16 12:01:07;;;;;;;5.37;4.10;;;;;;;;;;4991237;28;20466;-73
2022/05/16 12:03:36;;;;;;;10.93;4.73;;;;;;;;;;5039914;28;20439;-73
2022/05/16 12:06:26;;;;;;;11.90;5.93;;;;;;;;;;5052925;28;20452;-74
2022/05/16 12:09:15;;;;;;;13.93;7.23;;;;;;;;;;5053088;28;20440;-73
2022/05/16 12:11:49;;;;;;;8.03;5.00;;;;;;;;;;5053166;28;20846;-73
2022/05/16 12:14:25;;;;;;;7.37;4.40;;;;;;;;;;5052883;28;20518;-73
2022/05/16 12:16:56;;;;;;;6.33;5.10;;;;;;;;;;5056392;28;20469;-73
2022/05/16 12:19:29;;;;;;;9.50;4.83;;;;;;;;;;5056466;28;20853;-73
2022/05/16 12:22:00;;;;;;;8.13;5.83;;;;;;;;;;5056322;28;20445;-73
2022/05/16 12:24:32;;;;;;;7.03;4.53;;;;;;;;;;5056322;28;20435;-73
2022/05/16 12:27:05;;;;;;;7.00;4.40;;;;;;;;;;5056575;28;20956;-73
2022/05/16 12:29:39;;;;;;;7.83;4.77;;;;;;;;;;5056324;28;20423;-73
2022/05/16 12:32:08;;;;;;;11.10;3.93;;;;;;;;;;5056163;28;20439;-73
2022/05/16 12:34:44;;;;;;;7.17;4.40;;;;;;;;;;5057075;28;20459;-73
2022/05/16 12:37:13;;;;;;;7.57;4.20;;;;;;;;;;5056381;28;20483;-73
2022/05/16 12:39:43;;;;;;;5.93;4.73;;;;;;;;;;5055760;28;20948;-72
2022/05/16 12:42:20;;;;;;;6.87;5.17;;;;;;;;;;5056301;28;20454;-73
2022/05/16 12:44:54;;;;;;;5.80;4.50;;;;;;;;;;5055621;28;20471;-73
2022/05/16 12:47:35;;;;;;;8.60;4.83;;;;;;;;;;5056477;28;20434;-73
2022/05/16 12:50:20;;;;;;;7.40;4.20;;;;;;;;;;5056032;28;20464;-73
2022/05/16 12:53:12;;;;;;;5.87;4.23;;;;;;;;;;5055832;28;20447;-73
2022/05/16 12:55:55;;;;;;;9.03;4.37;;;;;;;;;;5036780;28;20453;-73
2022/05/16 12:58:26;;;;;;;7.43;4.17;;;;;;;;;;5054408;28;20567;-73
2022/05/16 13:00:54;;;;;;;7.40;6.17;;;;;;;;;;5055761;28;20469;-73
2022/05/16 13:03:28;;;;;;;8.93;5.10;;;;;;;;;;5055391;28;20430;-73
2022/05/16 13:06:00;;;;;;;7.80;4.53;;;;;;;;;;5055347;28;20429;-73
2022/05/16 13:08:31;;;;;;;7.33;4.40;;;;;;;;;;5055471;28;20445;-72
2022/05/16 13:11:02;;;;;;;10.20;5.10;;;;;;;;;;5055832;28;20434;-73
2022/05/16 13:13:45;;;;;;;9.60;4.67;;;;;;;;;;5055830;28;20442;-72
2022/05/16 13:16:14;;;;;;;12.73;5.67;;;;;;;;;;5052655;28;20446;-72
2022/05/16 13:18:45;;;;;;;8.60;4.60;;;;;;;;;;5055013;28;20501;-73
2022/05/16 13:21:15;;;;;;;5.27;4.10;;;;;;;;;;5055553;28;20432;-73
2022/05/16 13:23:42;;;;;;;5.70;4.00;;;;;;;;;;5055026;28;20951;-72
2022/05/16 13:31:42;;;;;;;9.07;4.70;;;;;;;;;;5055571;28;20792;-73
2022/05/16 13:34:12;;;;;;;7.17;4.20;;;;;;;;;;5054967;28;20481;-73
2022/05/16 13:36:45;;;;;;;14.13;4.90;;;;;;;;;;5055018;28;20435;-72
2022/05/16 13:39:15;;;;;;;18.67;4.80;;;;;;;;;;5055699;28;20836;-73
2022/05/16 13:41:43;;;;;;;9.87;5.30;;;;;;;;;;5054713;28;20535;-73
2022/05/16 13:44:12;;;;;;;6.73;4.33;;;;;;;;;;5055227;28;20448;-72
2022/05/16 13:46:39;;;;;;;5.90;4.30;;;;;;;;;;5054454;28;20456;-73
2022/05/16 13:49:07;;;;;;;10.70;4.67;;;;;;;;;;5054452;28;20452;-73
2022/05/16 13:51:42;;;;;;;7.53;4.73;;;;;;;;;;5054652;28;20930;-72
2022/05/16 13:54:14;;;;;;;12.90;6.57;;;;;;;;;;5055301;28;20432;-73
2022/05/16 13:56:42;;;;;;;10.07;5.40;;;;;;;;;;5054828;28;20433;-72
2022/05/16 13:59:09;;;;;;;5.40;4.20;;;;;;;;;;5054731;28;20535;-73
2022/05/16 14:01:37;;;;;;;7.50;4.37;;;;;;;;;;5054901;28;20521;-74
2022/05/16 14:04:06;;;;;;;6.30;4.80;;;;;;;;;;5054115;28;20443;-72
2022/05/16 14:06:38;;;;;;;10.13;4.07;;;;;;;;;;5054647;28;20432;-71
2022/05/16 14:09:08;;;;;;;7.10;4.33;;;;;;;;;;5054412;28;20433;-72
2022/05/16 14:11:36;;;;;;;5.93;4.40;;;;;;;;;;5054097;28;20455;-72
2022/05/16 14:14:04;;;;;;;10.90;4.60;;;;;;;;;;5054769;28;20448;-72
2022/05/16 14:16:32;;;;;;;9.77;4.63;;;;;;;;;;5054296;28;20477;-72
2022/05/16 14:19:01;;;;;;;8.40;4.50;;;;;;;;;;5054175;28;20478;-72
2022/05/16 14:21:30;;;;;;;12.83;4.67;;;;;;;;;;5053976;28;20450;-72
2022/05/16 14:24:05;;;;;;;9.23;4.20;;;;;;;;;;5054157;28;20448;-72
2022/05/16 14:26:48;;;;;;;6.60;4.70;;;;;;;;;;5053899;28;20511;-72
2022/05/16 14:29:18;;;;;;;8.90;4.90;;;;;;;;;;5054434;28;20431;-72
2022/05/16 14:31:47;;;;;;;9.07;5.10;;;;;;;;;;5054615;28;20486;-72
2022/05/16 14:34:21;;;;;;;7.40;4.20;;;;;;;;;;5054207;28;20446;-71
2022/05/16 14:36:49;;;;;;;12.33;5.70;;;;;;;;;;5053617;28;20441;-71
2022/05/16 14:39:20;;;;;;;15.20;5.90;;;;;;;;;;5053986;28;20453;-71
2022/05/16 14:41:52;;;;;;;14.80;6.97;;;;;;;;;;5054250;28;20513;-71
2022/05/16 14:44:21;;;;;;;13.63;6.50;;;;;;;;;;5054036;28;20422;-71
2022/05/16 14:46:57;;;;;;;11.10;8.30;;;;;;;;;;5053325;28;20452;-71
2022/05/16 14:49:24;;;;;;;12.83;9.80;;;;;;;;;;5054202;28;20434;-71
2022/05/16 14:51:52;;;;;;;16.87;9.33;;;;;;;;;;5054072;28;20444;-71
2022/05/16 14:54:23;;;;;;;14.47;8.43;;;;;;;;;;5053814;28;20449;-73
2022/05/16 14:56:50;;;;;;;12.17;8.10;;;;;;;;;;5053864;28;20528;-73
2022/05/16 14:59:18;;;;;;;14.87;9.80;;;;;;;;;;5053441;28;20499;-70
2022/05/16 15:04:30;;;;;;;14.50;9.27;;;;;;;;;;5053409;28;20396;-71
2022/05/16 15:06:58;;;;;;;10.83;9.73;;;;;;;;;;5053390;28;20536;-71
2022/05/16 15:09:27;;;;;;;14.47;9.67;;;;;;;;;;5053757;28;20456;-71
2022/05/16 15:11:55;;;;;;;13.90;9.10;;;;;;;;;;5053228;28;20445;-72
2022/05/16 15:14:23;;;;;;;12.07;8.60;;;;;;;;;;5053511;28;20448;-72
2022/05/16 15:16:51;;;;;;;10.93;8.00;;;;;;;;;;5053815;28;20764;-71
2022/05/16 15:19:19;;;;;;;12.07;9.00;;;;;;;;;;5052930;28;21004;-71
2022/05/16 15:21:46;;;;;;;12.53;7.90;;;;;;;;;;5053401;28;20464;-72
2022/05/16 15:24:17;;;;;;;15.03;8.43;;;;;;;;;;5053151;28;20442;-75
2022/05/16 15:26:46;;;;;;;8.50;7.70;;;;;;;;;;5053443;28;20502;-71
2022/05/16 15:29:13;;;;;;;12.93;7.17;;;;;;;;;;5052911;28;20542;-71
2022/05/16 15:31:40;;;;;;;8.23;7.23;;;;;;;;;;5052878;28;20459;-71
2022/05/16 15:34:07;;;;;;;15.73;8.00;;;;;;;;;;5053304;28;20444;-71
2022/05/16 15:36:35;;;;;;;10.83;7.93;;;;;;;;;;5053271;28;20452;-71